sensor_id;sensor_type;location;lat;lon;timestamp;temperature;humidity
16929;DHT22;8581;47.334;11.190;2023-06-22T00:00:04;16.10;99.90
16929;DHT22;8581;47.334;11.190;2023-06-22T00:02:36;16.20;99.90
16929;DHT22;8581;47.334;11.190;2023-06-22T00:05:07;16.40;99.90
16929;DHT22;8581;47.334;11.190;2023-06-22T00:07:39;16.50;99.90
16929;DHT22;8581;47.334;11.190;2023-06-22T00:10:10;16.60;99.90
16929;DHT22;8581;47.334;11.190;2023-06-22T00:12:42;16.70;99.90
16929;DHT22;8581;47.334;11.190;2023-06-22T00:15:14;16.80;99.90
16929;DHT22;8581;47.334;11.190;2023-06-22T00:17:45;16.80;99.90
16929;DHT22;8581;47.334;11.190;2023-06-22T00:20:17;16.90;99.90
16929;DHT22;8581;47.334;11.190;2023-06-22T00:22:49;16.90;99.90
16929;DHT22;8581;47.334;11.190;2023-06-22T00:25:21;17.00;99.90
16929;DHT22;8581;47.334;11.190;2023-06-22T00:27:52;17.00;99.90
16929;DHT22;8581;47.334;11.190;2023-06-22T00:30:24;17.10;99.90
16929;DHT22;8581;47.334;11.190;2023-06-22T00:32:55;17.10;99.90
16929;DHT22;8581;47.334;11.190;2023-06-22T00:35:27;17.00;99.90
16929;DHT22;8581;47.334;11.190;2023-06-22T00:38:01;17.20;99.90
16929;DHT22;8581;47.334;11.190;2023-06-22T00:40:32;17.20;99.90
16929;DHT22;8581;47.334;11.190;2023-06-22T00:43:04;17.00;99.90
16929;DHT22;8581;47.334;11.190;2023-06-22T00:45:35;17.10;99.90
16929;DHT22;8581;47.334;11.190;2023-06-22T00:48:07;17.10;99.90
16929;DHT22;8581;47.334;11.190;2023-06-22T00:50:39;17.20;99.90
16929;DHT22;8581;47.334;11.190;2023-06-22T00:53:10;17.10;99.90
16929;DHT22;8581;47.334;11.190;2023-06-22T00:55:42;16.90;99.90
16929;DHT22;8581;47.334;11.190;2023-06-22T00:58:14;16.80;99.90
16929;DHT22;8581;47.334;11.190;2023-06-22T01:00:46;16.70;99.90
16929;DHT22;8581;47.334;11.190;2023-06-22T01:03:17;16.60;99.90
16929;DHT22;8581;47.334;11.190;2023-06-22T01:05:49;16.50;99.90
16929;DHT22;8581;47.334;11.190;2023-06-22T01:11:10;16.50;99.90
16929;DHT22;8581;47.334;11.190;2023-06-22T01:13:45;16.30;99.90
16929;DHT22;8581;47.334;11.190;2023-06-22T01:16:24;16.20;99.90
16929;DHT22;8581;47.334;11.190;2023-06-22T01:18:49;16.00;99.90
16929;DHT22;8581;47.334;11.190;2023-06-22T01:21:20;16.10;99.90
16929;DHT22;8581;47.334;11.190;2023-06-22T01:27:27;16.00;99.90
16929;DHT22;8581;47.334;11.190;2023-06-22T01:29:37;15.90;99.90
16929;DHT22;8581;47.334;11.190;2023-06-22T01:32:08;15.70;99.90
16929;DHT22;8581;47.334;11.190;2023-06-22T01:34:40;15.70;99.90
16929;DHT22;8581;47.334;11.190;2023-06-22T01:37:12;15.80;99.90
16929;DHT22;8581;47.334;11.190;2023-06-22T01:39:43;15.70;99.90
16929;DHT22;8581;47.334;11.190;2023-06-22T01:42:15;15.60;99.90
16929;DHT22;8581;47.334;11.190;2023-06-22T01:44:46;15.60;99.90
16929;DHT22;8581;47.334;11.190;2023-06-22T01:47:18;15.40;99.90
16929;DHT22;8581;47.334;11.190;2023-06-22T01:49:50;15.40;99.90
16929;DHT22;8581;47.334;11.190;2023-06-22T01:52:21;15.30;99.90
16929;DHT22;8581;47.334;11.190;2023-06-22T01:54:53;15.10;99.90
16929;DHT22;8581;47.334;11.190;2023-06-22T01:57:24;15.20;99.90
16929;DHT22;8581;47.334;11.190;2023-06-22T02:00:03;15.20;99.90
16929;DHT22;8581;47.334;11.190;2023-06-22T02:02:39;15.20;99.90
16929;DHT22;8581;47.334;11.190;2023-06-22T02:05:10;15.20;99.90
16929;DHT22;8581;47.334;11.190;2023-06-22T02:07:44;15.30;99.90
16929;DHT22;8581;47.334;11.190;2023-06-22T02:10:14;15.30;99.90
16929;DHT22;8581;47.334;11.190;2023-06-22T02:12:45;15.10;99.90
16929;DHT22;8581;47.334;11.190;2023-06-22T02:15:16;15.00;99.90
16929;DHT22;8581;47.334;11.190;2023-06-22T02:17:48;15.10;99.90
16929;DHT22;8581;47.334;11.190;2023-06-22T02:20:20;14.90;99.90
16929;DHT22;8581;47.334;11.190;2023-06-22T02:22:51;14.80;99.90
16929;DHT22;8581;47.334;11.190;2023-06-22T02:25:23;14.90;99.90
16929;DHT22;8581;47.334;11.190;2023-06-22T02:27:54;14.90;99.90
16929;DHT22;8581;47.334;11.190;2023-06-22T02:30:26;14.90;99.90
16929;DHT22;8581;47.334;11.190;2023-06-22T02:32:58;14.90;99.90
16929;DHT22;8581;47.334;11.190;2023-06-22T02:35:30;14.70;99.90
16929;DHT22;8581;47.334;11.190;2023-06-22T02:38:03;14.70;99.90
16929;DHT22;8581;47.334;11.190;2023-06-22T02:40:34;14.70;99.90
16929;DHT22;8581;47.334;11.190;2023-06-22T02:43:06;14.70;99.90
16929;DHT22;8581;47.334;11.190;2023-06-22T02:45:37;14.60;99.90
16929;DHT22;8581;47.334;11.190;2023-06-22T02:48:09;14.70;99.90
16929;DHT22;8581;47.334;11.190;2023-06-22T02:50:40;14.60;99.90
16929;DHT22;8581;47.334;11.190;2023-06-22T02:53:12;14.70;99.90
16929;DHT22;8581;47.334;11.190;2023-06-22T02:55:44;14.70;99.90
16929;DHT22;8581;47.334;11.190;2023-06-22T02:58:15;14.70;99.90
16929;DHT22;8581;47.334;11.190;2023-06-22T03:00:47;14.60;99.90
16929;DHT22;8581;47.334;11.190;2023-06-22T03:03:19;14.60;99.90
16929;DHT22;8581;47.334;11.190;2023-06-22T03:05:50;14.70;99.90
16929;DHT22;8581;47.334;11.190;2023-06-22T03:08:22;14.60;99.90
16929;DHT22;8581;47.334;11.190;2023-06-22T03:10:53;14.60;99.90
16929;DHT22;8581;47.334;11.190;2023-06-22T03:13:25;14.60;99.90
16929;DHT22;8581;47.334;11.190;2023-06-22T03:15:56;14.60;99.90
16929;DHT22;8581;47.334;11.190;2023-06-22T03:18:28;14.70;99.90
16929;DHT22;8581;47.334;11.190;2023-06-22T03:21:00;14.70;99.90
16929;DHT22;8581;47.334;11.190;2023-06-22T03:23:31;14.80;99.90
16929;DHT22;8581;47.334;11.190;2023-06-22T03:26:03;14.80;99.90
16929;DHT22;8581;47.334;11.190;2023-06-22T03:28:35;14.70;99.90
16929;DHT22;8581;47.334;11.190;2023-06-22T03:31:06;14.70;99.90
16929;DHT22;8581;47.334;11.190;2023-06-22T03:33:38;14.90;99.90
16929;DHT22;8581;47.334;11.190;2023-06-22T03:36:09;15.10;99.90
16929;DHT22;8581;47.334;11.190;2023-06-22T03:38:41;15.10;99.90
16929;DHT22;8581;47.334;11.190;2023-06-22T03:41:12;14.90;99.90
16929;DHT22;8581;47.334;11.190;2023-06-22T03:43:44;14.80;99.90
16929;DHT22;8581;47.334;11.190;2023-06-22T03:46:16;15.00;99.90
16929;DHT22;8581;47.334;11.190;2023-06-22T03:48:47;15.10;99.90
16929;DHT22;8581;47.334;11.190;2023-06-22T03:51:19;15.10;99.90
16929;DHT22;8581;47.334;11.190;2023-06-22T03:53:50;15.30;99.90
16929;DHT22;8581;47.334;11.190;2023-06-22T03:56:22;15.00;99.90
16929;DHT22;8581;47.334;11.190;2023-06-22T03:58:54;14.90;99.90
16929;DHT22;8581;47.334;11.190;2023-06-22T04:01:25;15.10;99.90
16929;DHT22;8581;47.334;11.190;2023-06-22T04:03:57;15.10;99.90
16929;DHT22;8581;47.334;11.190;2023-06-22T04:06:28;15.20;99.90
16929;DHT22;8581;47.334;11.190;2023-06-22T04:09:00;15.00;99.90
16929;DHT22;8581;47.334;11.190;2023-06-22T04:11:32;15.10;99.90
16929;DHT22;8581;47.334;11.190;2023-06-22T04:14:03;15.20;99.90
16929;DHT22;8581;47.334;11.190;2023-06-22T04:16:35;15.10;99.90
16929;DHT22;8581;47.334;11.190;2023-06-22T04:19:06;15.30;99.90
16929;DHT22;8581;47.334;11.190;2023-06-22T04:21:38;15.30;99.90
16929;DHT22;8581;47.334;11.190;2023-06-22T04:24:11;15.40;99.90
16929;DHT22;8581;47.334;11.190;2023-06-22T04:26:43;15.50;99.90
16929;DHT22;8581;47.334;11.190;2023-06-22T04:29:14;15.60;99.90
16929;DHT22;8581;47.334;11.190;2023-06-22T04:31:46;15.60;99.90
16929;DHT22;8581;47.334;11.190;2023-06-22T04:34:18;15.50;99.90
16929;DHT22;8581;47.334;11.190;2023-06-22T04:36:49;15.60;99.90
16929;DHT22;8581;47.334;11.190;2023-06-22T04:39:21;15.80;99.90
16929;DHT22;8581;47.334;11.190;2023-06-22T04:41:52;15.90;99.90
16929;DHT22;8581;47.334;11.190;2023-06-22T04:44:24;16.00;99.90
16929;DHT22;8581;47.334;11.190;2023-06-22T04:46:57;15.90;99.90
16929;DHT22;8581;47.334;11.190;2023-06-22T04:49:29;16.10;99.90
16929;DHT22;8581;47.334;11.190;2023-06-22T04:52:15;16.10;99.90
16929;DHT22;8581;47.334;11.190;2023-06-22T04:54:46;16.20;99.90
16929;DHT22;8581;47.334;11.190;2023-06-22T04:57:19;16.20;99.90
16929;DHT22;8581;47.334;11.190;2023-06-22T04:59:51;16.50;99.90
16929;DHT22;8581;47.334;11.190;2023-06-22T05:02:22;16.40;99.90
16929;DHT22;8581;47.334;11.190;2023-06-22T05:04:54;16.50;99.90
16929;DHT22;8581;47.334;11.190;2023-06-22T05:07:25;16.60;99.90
16929;DHT22;8581;47.334;11.190;2023-06-22T05:09:57;16.80;99.90
16929;DHT22;8581;47.334;11.190;2023-06-22T05:12:29;17.10;99.90
16929;DHT22;8581;47.334;11.190;2023-06-22T05:15:00;17.30;99.90
16929;DHT22;8581;47.334;11.190;2023-06-22T05:17:32;17.40;99.90
16929;DHT22;8581;47.334;11.190;2023-06-22T05:20:04;17.50;99.90
16929;DHT22;8581;47.334;11.190;2023-06-22T05:22:36;17.80;99.90
16929;DHT22;8581;47.334;11.190;2023-06-22T05:25:08;17.80;99.90
16929;DHT22;8581;47.334;11.190;2023-06-22T05:27:40;17.90;99.90
16929;DHT22;8581;47.334;11.190;2023-06-22T05:30:12;18.00;99.90
16929;DHT22;8581;47.334;11.190;2023-06-22T05:32:43;18.00;99.90
16929;DHT22;8581;47.334;11.190;2023-06-22T05:35:15;18.20;99.90
16929;DHT22;8581;47.334;11.190;2023-06-22T05:37:46;18.30;99.90
16929;DHT22;8581;47.334;11.190;2023-06-22T05:40:18;18.20;99.90
16929;DHT22;8581;47.334;11.190;2023-06-22T05:42:50;18.20;99.90
16929;DHT22;8581;47.334;11.190;2023-06-22T05:45:21;18.30;99.90
16929;DHT22;8581;47.334;11.190;2023-06-22T05:47:53;18.30;99.90
16929;DHT22;8581;47.334;11.190;2023-06-22T05:50:25;18.40;99.90
16929;DHT22;8581;47.334;11.190;2023-06-22T05:52:56;18.50;99.90
16929;DHT22;8581;47.334;11.190;2023-06-22T05:55:28;18.60;99.90
16929;DHT22;8581;47.334;11.190;2023-06-22T05:57:59;18.70;99.90
16929;DHT22;8581;47.334;11.190;2023-06-22T06:00:31;18.90;99.90
16929;DHT22;8581;47.334;11.190;2023-06-22T06:03:03;19.10;99.90
16929;DHT22;8581;47.334;11.190;2023-06-22T06:05:34;19.20;99.90
16929;DHT22;8581;47.334;11.190;2023-06-22T06:08:06;19.30;99.90
16929;DHT22;8581;47.334;11.190;2023-06-22T06:10:38;19.40;99.90
16929;DHT22;8581;47.334;11.190;2023-06-22T06:13:09;19.60;99.90
16929;DHT22;8581;47.334;11.190;2023-06-22T06:15:41;19.60;99.90
16929;DHT22;8581;47.334;11.190;2023-06-22T06:18:12;19.70;99.90
16929;DHT22;8581;47.334;11.190;2023-06-22T06:20:44;19.80;99.90
16929;DHT22;8581;47.334;11.190;2023-06-22T06:23:16;19.60;99.90
16929;DHT22;8581;47.334;11.190;2023-06-22T06:25:47;19.70;99.90
16929;DHT22;8581;47.334;11.190;2023-06-22T06:28:19;19.80;99.90
16929;DHT22;8581;47.334;11.190;2023-06-22T06:30:50;19.80;99.90
16929;DHT22;8581;47.334;11.190;2023-06-22T06:33:22;19.90;99.90
16929;DHT22;8581;47.334;11.190;2023-06-22T06:35:54;20.10;99.90
16929;DHT22;8581;47.334;11.190;2023-06-22T06:38:25;20.20;99.90
16929;DHT22;8581;47.334;11.190;2023-06-22T06:40:57;20.40;99.90
16929;DHT22;8581;47.334;11.190;2023-06-22T06:43:28;20.50;99.90
16929;DHT22;8581;47.334;11.190;2023-06-22T06:46:00;20.60;99.90
16929;DHT22;8581;47.334;11.190;2023-06-22T06:48:32;20.80;99.90
16929;DHT22;8581;47.334;11.190;2023-06-22T06:51:03;21.00;99.90
16929;DHT22;8581;47.334;11.190;2023-06-22T06:53:36;21.20;99.90
16929;DHT22;8581;47.334;11.190;2023-06-22T06:56:07;21.40;99.90
16929;DHT22;8581;47.334;11.190;2023-06-22T06:58:41;21.50;99.90
16929;DHT22;8581;47.334;11.190;2023-06-22T07:01:14;21.60;99.90
16929;DHT22;8581;47.334;11.190;2023-06-22T07:03:45;21.60;99.90
16929;DHT22;8581;47.334;11.190;2023-06-22T07:06:17;21.90;99.90
16929;DHT22;8581;47.334;11.190;2023-06-22T07:08:49;21.90;99.90
16929;DHT22;8581;47.334;11.190;2023-06-22T07:11:20;21.90;99.90
16929;DHT22;8581;47.334;11.190;2023-06-22T07:13:52;22.00;99.90
16929;DHT22;8581;47.334;11.190;2023-06-22T07:16:23;22.20;99.90
16929;DHT22;8581;47.334;11.190;2023-06-22T07:18:55;22.30;99.90
16929;DHT22;8581;47.334;11.190;2023-06-22T07:21:27;22.50;99.90
16929;DHT22;8581;47.334;11.190;2023-06-22T07:23:58;22.70;99.90
16929;DHT22;8581;47.334;11.190;2023-06-22T07:26:30;22.70;99.90
16929;DHT22;8581;47.334;11.190;2023-06-22T07:29:01;22.90;99.90
16929;DHT22;8581;47.334;11.190;2023-06-22T07:31:33;23.00;99.90
16929;DHT22;8581;47.334;11.190;2023-06-22T07:34:04;23.30;99.90
16929;DHT22;8581;47.334;11.190;2023-06-22T07:36:36;23.60;99.90
16929;DHT22;8581;47.334;11.190;2023-06-22T07:39:08;23.70;99.90
16929;DHT22;8581;47.334;11.190;2023-06-22T07:41:41;23.70;99.90
16929;DHT22;8581;47.334;11.190;2023-06-22T07:44:12;23.90;99.90
16929;DHT22;8581;47.334;11.190;2023-06-22T07:46:44;24.20;99.90
16929;DHT22;8581;47.334;11.190;2023-06-22T07:49:17;24.40;99.90
16929;DHT22;8581;47.334;11.190;2023-06-22T07:51:48;24.70;99.90
16929;DHT22;8581;47.334;11.190;2023-06-22T07:54:20;25.00;99.90
16929;DHT22;8581;47.334;11.190;2023-06-22T07:56:52;24.90;99.90
16929;DHT22;8581;47.334;11.190;2023-06-22T07:59:23;24.90;99.90
16929;DHT22;8581;47.334;11.190;2023-06-22T08:01:55;24.90;99.90
16929;DHT22;8581;47.334;11.190;2023-06-22T08:04:27;25.10;99.90
16929;DHT22;8581;47.334;11.190;2023-06-22T08:06:59;25.30;99.90
16929;DHT22;8581;47.334;11.190;2023-06-22T08:09:31;25.20;99.90
16929;DHT22;8581;47.334;11.190;2023-06-22T08:12:02;25.40;99.90
16929;DHT22;8581;47.334;11.190;2023-06-22T08:14:35;25.50;99.90
16929;DHT22;8581;47.334;11.190;2023-06-22T08:17:06;25.60;99.90
16929;DHT22;8581;47.334;11.190;2023-06-22T08:19:37;25.70;99.90
16929;DHT22;8581;47.334;11.190;2023-06-22T08:22:09;25.60;99.90
16929;DHT22;8581;47.334;11.190;2023-06-22T08:24:41;26.00;99.90
16929;DHT22;8581;47.334;11.190;2023-06-22T08:27:12;25.50;99.90
16929;DHT22;8581;47.334;11.190;2023-06-22T08:29:44;25.30;99.90
16929;DHT22;8581;47.334;11.190;2023-06-22T08:32:18;25.30;99.90
16929;DHT22;8581;47.334;11.190;2023-06-22T08:34:50;25.40;99.90
16929;DHT22;8581;47.334;11.190;2023-06-22T08:37:21;25.50;99.90
16929;DHT22;8581;47.334;11.190;2023-06-22T08:39:58;25.60;99.90
16929;DHT22;8581;47.334;11.190;2023-06-22T08:42:28;25.70;99.90
16929;DHT22;8581;47.334;11.190;2023-06-22T08:44:59;25.70;99.90
16929;DHT22;8581;47.334;11.190;2023-06-22T08:47:31;25.70;99.90
16929;DHT22;8581;47.334;11.190;2023-06-22T08:50:03;25.70;99.90
16929;DHT22;8581;47.334;11.190;2023-06-22T08:52:35;25.60;99.90
16929;DHT22;8581;47.334;11.190;2023-06-22T08:55:07;25.60;99.90
16929;DHT22;8581;47.334;11.190;2023-06-22T08:57:39;25.90;99.90
16929;DHT22;8581;47.334;11.190;2023-06-22T09:00:11;25.90;99.90
16929;DHT22;8581;47.334;11.190;2023-06-22T09:02:47;25.90;99.90
16929;DHT22;8581;47.334;11.190;2023-06-22T09:05:18;26.00;99.90
16929;DHT22;8581;47.334;11.190;2023-06-22T09:07:50;26.20;99.90
16929;DHT22;8581;47.334;11.190;2023-06-22T09:10:22;26.40;99.90
16929;DHT22;8581;47.334;11.190;2023-06-22T09:12:53;26.60;99.90
16929;DHT22;8581;47.334;11.190;2023-06-22T09:15:25;26.90;99.90
16929;DHT22;8581;47.334;11.190;2023-06-22T09:17:56;27.20;99.90
16929;DHT22;8581;47.334;11.190;2023-06-22T09:20:28;27.50;99.90
16929;DHT22;8581;47.334;11.190;2023-06-22T09:23:00;27.60;99.90
16929;DHT22;8581;47.334;11.190;2023-06-22T09:25:31;27.90;99.90
16929;DHT22;8581;47.334;11.190;2023-06-22T09:28:03;28.20;99.90
16929;DHT22;8581;47.334;11.190;2023-06-22T09:30:35;28.20;99.90
16929;DHT22;8581;47.334;11.190;2023-06-22T09:33:06;28.30;99.90
16929;DHT22;8581;47.334;11.190;2023-06-22T09:35:38;28.00;99.90
16929;DHT22;8581;47.334;11.190;2023-06-22T09:38:10;27.80;99.90
16929;DHT22;8581;47.334;11.190;2023-06-22T09:40:41;27.70;99.90
16929;DHT22;8581;47.334;11.190;2023-06-22T09:43:13;27.40;99.90
16929;DHT22;8581;47.334;11.190;2023-06-22T09:45:44;27.40;99.90
16929;DHT22;8581;47.334;11.190;2023-06-22T09:48:16;27.60;99.90
16929;DHT22;8581;47.334;11.190;2023-06-22T09:50:48;27.80;99.90
16929;DHT22;8581;47.334;11.190;2023-06-22T09:53:19;27.70;99.90
16929;DHT22;8581;47.334;11.190;2023-06-22T09:55:51;27.70;99.90
16929;DHT22;8581;47.334;11.190;2023-06-22T09:58:23;27.80;99.90
16929;DHT22;8581;47.334;11.190;2023-06-22T10:00:54;27.90;99.90
16929;DHT22;8581;47.334;11.190;2023-06-22T10:03:26;28.40;99.90
16929;DHT22;8581;47.334;11.190;2023-06-22T10:05:57;28.70;99.90
16929;DHT22;8581;47.334;11.190;2023-06-22T10:08:29;28.50;99.90
16929;DHT22;8581;47.334;11.190;2023-06-22T10:11:01;28.30;99.90
16929;DHT22;8581;47.334;11.190;2023-06-22T10:13:32;28.20;99.90
16929;DHT22;8581;47.334;11.190;2023-06-22T10:16:05;28.20;99.90
16929;DHT22;8581;47.334;11.190;2023-06-22T10:18:37;28.20;99.90
16929;DHT22;8581;47.334;11.190;2023-06-22T10:21:09;28.30;99.90
16929;DHT22;8581;47.334;11.190;2023-06-22T10:23:41;28.20;99.90
16929;DHT22;8581;47.334;11.190;2023-06-22T10:26:12;28.10;99.90
16929;DHT22;8581;47.334;11.190;2023-06-22T10:28:44;28.30;99.90
16929;DHT22;8581;47.334;11.190;2023-06-22T10:31:15;28.50;99.90
16929;DHT22;8581;47.334;11.190;2023-06-22T10:33:47;28.40;99.90
16929;DHT22;8581;47.334;11.190;2023-06-22T10:36:19;28.50;99.90
16929;DHT22;8581;47.334;11.190;2023-06-22T10:38:50;28.70;99.90
16929;DHT22;8581;47.334;11.190;2023-06-22T10:41:22;28.80;99.90
16929;DHT22;8581;47.334;11.190;2023-06-22T10:43:53;29.00;99.90
16929;DHT22;8581;47.334;11.190;2023-06-22T10:46:25;29.20;99.90
16929;DHT22;8581;47.334;11.190;2023-06-22T10:48:57;29.20;99.90
16929;DHT22;8581;47.334;11.190;2023-06-22T10:51:28;29.50;99.90
16929;DHT22;8581;47.334;11.190;2023-06-22T10:54:00;29.70;98.40
16929;DHT22;8581;47.334;11.190;2023-06-22T10:56:31;29.70;99.20
16929;DHT22;8581;47.334;11.190;2023-06-22T10:59:03;30.00;98.70
16929;DHT22;8581;47.334;11.190;2023-06-22T11:01:35;30.40;98.60
16929;DHT22;8581;47.334;11.190;2023-06-22T11:04:06;31.90;97.80
16929;DHT22;8581;47.334;11.190;2023-06-22T11:06:38;33.80;95.80
16929;DHT22;8581;47.334;11.190;2023-06-22T11:09:10;35.60;96.40
16929;DHT22;8581;47.334;11.190;2023-06-22T11:11:41;37.20;91.50
16929;DHT22;8581;47.334;11.190;2023-06-22T11:14:13;37.00;91.10
16929;DHT22;8581;47.334;11.190;2023-06-22T11:16:44;36.70;90.90
16929;DHT22;8581;47.334;11.190;2023-06-22T11:19:16;36.30;89.80
16929;DHT22;8581;47.334;11.190;2023-06-22T11:21:48;36.10;88.40
16929;DHT22;8581;47.334;11.190;2023-06-22T11:24:19;35.40;90.40
16929;DHT22;8581;47.334;11.190;2023-06-22T11:26:51;35.10;90.70
16929;DHT22;8581;47.334;11.190;2023-06-22T11:29:22;35.50;90.30
16929;DHT22;8581;47.334;11.190;2023-06-22T11:31:54;35.00;89.40
16929;DHT22;8581;47.334;11.190;2023-06-22T11:34:26;34.40;88.70
16929;DHT22;8581;47.334;11.190;2023-06-22T11:36:57;34.30;91.20
16929;DHT22;8581;47.334;11.190;2023-06-22T11:39:29;34.00;88.20
16929;DHT22;8581;47.334;11.190;2023-06-22T11:42:00;33.50;87.20
16929;DHT22;8581;47.334;11.190;2023-06-22T11:44:32;33.30;86.80
16929;DHT22;8581;47.334;11.190;2023-06-22T11:47:04;33.50;88.60
16929;DHT22;8581;47.334;11.190;2023-06-22T11:49:36;33.50;90.10
16929;DHT22;8581;47.334;11.190;2023-06-22T11:52:08;33.50;87.40
16929;DHT22;8581;47.334;11.190;2023-06-22T11:54:39;33.60;88.10
16929;DHT22;8581;47.334;11.190;2023-06-22T11:57:11;34.60;87.80
16929;DHT22;8581;47.334;11.190;2023-06-22T11:59:42;35.20;85.80
16929;DHT22;8581;47.334;11.190;2023-06-22T12:02:14;35.50;84.80
16929;DHT22;8581;47.334;11.190;2023-06-22T12:04:46;36.40;81.00
16929;DHT22;8581;47.334;11.190;2023-06-22T12:07:17;37.20;79.60
16929;DHT22;8581;47.334;11.190;2023-06-22T12:09:49;38.60;79.40
16929;DHT22;8581;47.334;11.190;2023-06-22T12:12:20;38.90;76.30
16929;DHT22;8581;47.334;11.190;2023-06-22T12:14:52;39.40;76.70
16929;DHT22;8581;47.334;11.190;2023-06-22T12:17:24;39.40;75.90
16929;DHT22;8581;47.334;11.190;2023-06-22T12:19:55;39.90;72.80
16929;DHT22;8581;47.334;11.190;2023-06-22T12:22:27;39.90;76.40
16929;DHT22;8581;47.334;11.190;2023-06-22T12:24:58;39.60;71.20
16929;DHT22;8581;47.334;11.190;2023-06-22T12:27:30;38.90;73.20
16929;DHT22;8581;47.334;11.190;2023-06-22T12:30:02;38.00;72.80
16929;DHT22;8581;47.334;11.190;2023-06-22T12:32:33;37.50;72.20
16929;DHT22;8581;47.334;11.190;2023-06-22T12:35:06;37.40;73.60
16929;DHT22;8581;47.334;11.190;2023-06-22T12:37:38;36.60;73.50
16929;DHT22;8581;47.334;11.190;2023-06-22T12:40:10;36.40;75.10
16929;DHT22;8581;47.334;11.190;2023-06-22T12:42:42;36.80;76.90
16929;DHT22;8581;47.334;11.190;2023-06-22T12:45:13;37.00;70.90
16929;DHT22;8581;47.334;11.190;2023-06-22T12:47:45;37.00;73.40
16929;DHT22;8581;47.334;11.190;2023-06-22T12:50:16;36.80;73.60
16929;DHT22;8581;47.334;11.190;2023-06-22T12:52:48;36.90;73.20
16929;DHT22;8581;47.334;11.190;2023-06-22T12:55:20;37.00;74.60
16929;DHT22;8581;47.334;11.190;2023-06-22T12:57:51;37.80;69.40
16929;DHT22;8581;47.334;11.190;2023-06-22T13:00:23;38.20;68.70
16929;DHT22;8581;47.334;11.190;2023-06-22T13:02:55;37.90;67.50
16929;DHT22;8581;47.334;11.190;2023-06-22T13:05:26;37.60;71.00
16929;DHT22;8581;47.334;11.190;2023-06-22T13:07:58;37.90;69.30
16929;DHT22;8581;47.334;11.190;2023-06-22T13:10:29;37.90;68.70
16929;DHT22;8581;47.334;11.190;2023-06-22T13:13:01;37.10;72.30
16929;DHT22;8581;47.334;11.190;2023-06-22T13:15:33;36.20;71.70
16929;DHT22;8581;47.334;11.190;2023-06-22T13:18:04;35.40;70.80
16929;DHT22;8581;47.334;11.190;2023-06-22T13:20:36;35.50;71.60
16929;DHT22;8581;47.334;11.190;2023-06-22T13:23:07;35.70;73.20
16929;DHT22;8581;47.334;11.190;2023-06-22T13:25:39;35.90;72.40
16929;DHT22;8581;47.334;11.190;2023-06-22T13:28:11;36.30;69.30
16929;DHT22;8581;47.334;11.190;2023-06-22T13:30:42;36.10;70.40
16929;DHT22;8581;47.334;11.190;2023-06-22T13:33:15;35.90;69.30
16929;DHT22;8581;47.334;11.190;2023-06-22T13:35:46;36.00;70.70
16929;DHT22;8581;47.334;11.190;2023-06-22T13:38:18;35.60;70.00
16929;DHT22;8581;47.334;11.190;2023-06-22T13:40:49;34.90;73.60
16929;DHT22;8581;47.334;11.190;2023-06-22T13:43:21;35.40;74.70
16929;DHT22;8581;47.334;11.190;2023-06-22T13:45:53;36.20;72.00
16929;DHT22;8581;47.334;11.190;2023-06-22T13:48:24;36.90;69.90
16929;DHT22;8581;47.334;11.190;2023-06-22T13:50:56;38.00;69.60
16929;DHT22;8581;47.334;11.190;2023-06-22T13:53:27;38.60;67.50
16929;DHT22;8581;47.334;11.190;2023-06-22T13:55:59;39.40;64.70
16929;DHT22;8581;47.334;11.190;2023-06-22T13:58:31;39.10;65.30
16929;DHT22;8581;47.334;11.190;2023-06-22T14:01:02;38.60;64.90
16929;DHT22;8581;47.334;11.190;2023-06-22T14:03:34;37.50;70.40
16929;DHT22;8581;47.334;11.190;2023-06-22T14:06:05;37.60;69.00
16929;DHT22;8581;47.334;11.190;2023-06-22T14:08:37;37.00;69.80
16929;DHT22;8581;47.334;11.190;2023-06-22T14:11:09;37.40;68.50
16929;DHT22;8581;47.334;11.190;2023-06-22T14:13:40;36.90;68.40
16929;DHT22;8581;47.334;11.190;2023-06-22T14:16:12;36.50;68.80
16929;DHT22;8581;47.334;11.190;2023-06-22T14:18:44;36.60;67.10
16929;DHT22;8581;47.334;11.190;2023-06-22T14:21:15;36.30;70.20
16929;DHT22;8581;47.334;11.190;2023-06-22T14:23:47;35.80;70.50
16929;DHT22;8581;47.334;11.190;2023-06-22T14:26:18;36.10;73.70
16929;DHT22;8581;47.334;11.190;2023-06-22T14:28:50;36.40;67.50
16929;DHT22;8581;47.334;11.190;2023-06-22T14:31:22;37.00;68.90
16929;DHT22;8581;47.334;11.190;2023-06-22T14:33:53;36.80;78.10
16929;DHT22;8581;47.334;11.190;2023-06-22T14:36:25;36.60;75.00
16929;DHT22;8581;47.334;11.190;2023-06-22T14:38:56;36.70;71.40
16929;DHT22;8581;47.334;11.190;2023-06-22T14:41:29;37.60;66.30
16929;DHT22;8581;47.334;11.190;2023-06-22T14:44:00;38.20;62.90
16929;DHT22;8581;47.334;11.190;2023-06-22T14:46:31;38.60;63.20
16929;DHT22;8581;47.334;11.190;2023-06-22T14:49:03;39.60;62.90
16929;DHT22;8581;47.334;11.190;2023-06-22T14:51:34;40.10;61.40
16929;DHT22;8581;47.334;11.190;2023-06-22T14:54:06;40.90;63.60
16929;DHT22;8581;47.334;11.190;2023-06-22T14:56:37;40.70;58.70
16929;DHT22;8581;47.334;11.190;2023-06-22T14:59:09;39.30;59.00
16929;DHT22;8581;47.334;11.190;2023-06-22T15:01:41;38.30;60.30
16929;DHT22;8581;47.334;11.190;2023-06-22T15:04:12;37.90;60.40
16929;DHT22;8581;47.334;11.190;2023-06-22T15:06:44;37.50;60.10
16929;DHT22;8581;47.334;11.190;2023-06-22T15:09:15;36.40;61.10
16929;DHT22;8581;47.334;11.190;2023-06-22T15:11:47;35.20;61.00
16929;DHT22;8581;47.334;11.190;2023-06-22T15:14:19;35.30;62.80
16929;DHT22;8581;47.334;11.190;2023-06-22T15:16:50;35.20;62.10
16929;DHT22;8581;47.334;11.190;2023-06-22T15:19:22;34.90;64.70
16929;DHT22;8581;47.334;11.190;2023-06-22T15:21:53;34.60;66.60
16929;DHT22;8581;47.334;11.190;2023-06-22T15:24:25;34.20;68.40
16929;DHT22;8581;47.334;11.190;2023-06-22T15:26:57;33.70;69.50
16929;DHT22;8581;47.334;11.190;2023-06-22T15:29:28;33.30;69.10
16929;DHT22;8581;47.334;11.190;2023-06-22T15:32:00;33.30;69.40
16929;DHT22;8581;47.334;11.190;2023-06-22T15:34:31;33.40;66.70
16929;DHT22;8581;47.334;11.190;2023-06-22T15:37:04;33.00;66.50
16929;DHT22;8581;47.334;11.190;2023-06-22T15:39:35;32.70;67.70
16929;DHT22;8581;47.334;11.190;2023-06-22T15:42:07;32.60;66.80
16929;DHT22;8581;47.334;11.190;2023-06-22T15:44:39;32.30;71.80
16929;DHT22;8581;47.334;11.190;2023-06-22T15:47:10;32.10;70.80
16929;DHT22;8581;47.334;11.190;2023-06-22T15:49:42;32.00;67.60
16929;DHT22;8581;47.334;11.190;2023-06-22T15:52:13;31.80;67.30
16929;DHT22;8581;47.334;11.190;2023-06-22T15:54:45;31.70;69.10
16929;DHT22;8581;47.334;11.190;2023-06-22T15:57:17;31.40;68.60
16929;DHT22;8581;47.334;11.190;2023-06-22T15:59:48;31.30;70.90
16929;DHT22;8581;47.334;11.190;2023-06-22T16:02:20;31.80;72.10